createdAt,value
2018-12-04T00:01:09.039Z,6.93
2018-12-04T00:03:43.204Z,6.60
2018-12-04T00:06:12.708Z,6.10
2018-12-04T00:08:41.946Z,6.33
2018-12-04T00:11:18.676Z,6.70
2018-12-04T00:13:47.900Z,6.37
2018-12-04T00:16:17.236Z,6.30
2018-12-04T00:18:46.434Z,6.27
2018-12-04T00:21:15.701Z,7.00
2018-12-04T00:23:44.906Z,6.43
2018-12-04T00:26:14.422Z,6.00
2018-12-04T00:28:52.246Z,6.50
2018-12-04T00:31:22.209Z,6.40
2018-12-04T00:33:55.712Z,6.37
2018-12-04T00:36:33.601Z,5.97
2018-12-04T00:39:04.519Z,5.90
2018-12-04T00:41:34.037Z,6.27
2018-12-04T00:44:03.309Z,6.50
2018-12-04T00:46:33.181Z,6.47
2018-12-04T00:49:02.389Z,6.60
2018-12-04T00:51:31.606Z,6.20
2018-12-04T00:54:00.881Z,5.87
2018-12-04T00:56:30.089Z,6.53
2018-12-04T00:58:59.313Z,6.13
2018-12-04T01:01:28.788Z,6.30
2018-12-04T01:03:58.069Z,5.70
2018-12-04T01:06:27.283Z,6.10
2018-12-04T01:09:02.369Z,5.70
2018-12-04T01:11:31.696Z,5.97
2018-12-04T01:14:01.533Z,5.50
2018-12-04T01:16:30.743Z,5.10
2018-12-04T01:19:00.032Z,5.20
2018-12-04T01:21:29.294Z,5.27
2018-12-04T01:23:58.965Z,5.77
2018-12-04T01:26:28.209Z,5.83
2018-12-04T01:28:57.403Z,5.93
2018-12-04T01:31:31.656Z,6.23
2018-12-04T01:34:00.892Z,5.17
2018-12-04T01:36:30.197Z,5.90
2018-12-04T01:39:00.072Z,5.47
2018-12-04T01:41:29.334Z,5.43
2018-12-04T01:44:05.039Z,6.37
2018-12-04T01:46:34.244Z,5.67
2018-12-04T01:49:03.550Z,5.23
2018-12-04T01:51:32.802Z,5.67
2018-12-04T01:54:02.036Z,6.50
2018-12-04T01:56:31.244Z,5.87
2018-12-04T01:59:00.441Z,6.03
2018-12-04T02:01:29.668Z,5.17
2018-12-04T02:04:01.550Z,5.80
2018-12-04T02:06:30.765Z,5.27
2018-12-04T02:09:00.004Z,5.20
2018-12-04T02:11:29.291Z,4.87
2018-12-04T02:13:58.645Z,4.87
2018-12-04T02:16:27.931Z,4.87
2018-12-04T02:18:57.168Z,5.57
2018-12-04T02:21:29.454Z,5.00
2018-12-04T02:23:58.765Z,4.90
2018-12-04T02:26:28.951Z,4.90
2018-12-04T02:28:58.151Z,4.87
2018-12-04T02:31:40.779Z,4.90
2018-12-04T02:34:09.982Z,5.10
2018-12-04T02:36:39.292Z,4.73
2018-12-04T02:39:09.007Z,4.90
2018-12-04T02:41:38.825Z,5.30
2018-12-04T02:44:08.108Z,5.60
2018-12-04T02:46:37.338Z,5.27
2018-12-04T02:49:17.900Z,6.20
2018-12-04T02:51:47.189Z,5.27
2018-12-04T02:54:34.186Z,5.13
2018-12-04T02:57:03.430Z,5.23
2018-12-04T02:59:32.693Z,4.97
2018-12-04T03:02:01.938Z,5.10
2018-12-04T03:04:31.193Z,4.50
2018-12-04T03:07:00.461Z,4.30
2018-12-04T03:09:29.679Z,4.30
2018-12-04T03:11:58.925Z,4.43
2018-12-04T03:14:28.746Z,3.93
2018-12-04T03:17:03.670Z,3.77
2018-12-04T03:19:33.162Z,3.53
2018-12-04T03:22:03.204Z,3.70
2018-12-04T03:24:32.391Z,3.23
2018-12-04T03:27:01.612Z,3.03
2018-12-04T03:29:31.248Z,3.17
2018-12-04T03:32:00.482Z,3.53
2018-12-04T03:34:29.820Z,3.20
2018-12-04T03:36:59.090Z,2.97
2018-12-04T03:39:28.357Z,2.90
2018-12-04T03:41:57.561Z,3.47
2018-12-04T03:44:26.865Z,3.37
2018-12-04T03:47:02.152Z,3.67
2018-12-04T03:49:31.841Z,3.30
2018-12-04T03:52:01.862Z,3.40
2018-12-04T03:54:33.076Z,3.33
2018-12-04T03:57:02.279Z,3.50
2018-12-04T03:59:31.585Z,3.30
2018-12-04T04:02:00.829Z,3.00
2018-12-04T04:04:30.108Z,3.63
2018-12-04T04:06:59.832Z,3.37
2018-12-04T04:09:29.752Z,3.33
2018-12-04T04:11:58.997Z,3.20
2018-12-04T04:14:28.269Z,3.40
2018-12-04T04:16:57.545Z,3.30
2018-12-04T04:19:27.819Z,3.60
2018-12-04T04:21:57.051Z,3.90
2018-12-04T04:24:26.267Z,4.73
2018-12-04T04:26:55.473Z,4.53
2018-12-04T04:29:25.040Z,4.00
2018-12-04T04:31:55.073Z,3.90
2018-12-04T04:34:24.398Z,4.20
2018-12-04T04:36:53.572Z,4.00
2018-12-04T04:39:22.813Z,3.60
2018-12-04T04:41:52.194Z,3.53
2018-12-04T04:44:21.586Z,4.20
2018-12-04T04:46:50.742Z,3.97
2018-12-04T04:49:20.622Z,3.50
2018-12-04T04:51:53.312Z,3.40
2018-12-04T04:54:22.527Z,3.03
2018-12-04T04:56:51.865Z,3.00
2018-12-04T04:59:21.959Z,3.13
2018-12-04T05:01:51.171Z,3.20
2018-12-04T05:04:21.042Z,3.53
2018-12-04T05:06:50.889Z,3.33
2018-12-04T05:09:23.120Z,2.87
2018-12-04T05:11:52.390Z,2.97
2018-12-04T05:14:22.415Z,3.00
2018-12-04T05:16:51.608Z,2.60
2018-12-04T05:19:22.331Z,2.70
2018-12-04T05:22:06.391Z,2.77
2018-12-04T05:24:35.605Z,2.77
2018-12-04T05:27:04.847Z,2.70
2018-12-04T05:29:34.100Z,2.60
2018-12-04T05:32:03.302Z,3.20
2018-12-04T05:34:32.630Z,2.93
2018-12-04T05:37:02.258Z,3.10
2018-12-04T05:39:31.445Z,2.90
2018-12-04T05:42:00.681Z,2.87
2018-12-04T05:44:29.920Z,2.40
2018-12-04T05:46:59.660Z,2.73
2018-12-04T05:49:28.980Z,2.63
2018-12-04T05:51:58.150Z,2.60
2018-12-04T05:54:29.273Z,2.60
2018-12-04T05:56:58.531Z,2.50
2018-12-04T05:59:27.754Z,2.60
2018-12-04T06:01:57.322Z,2.30
2018-12-04T06:04:33.157Z,2.30
2018-12-04T06:07:02.584Z,2.50
2018-12-04T06:09:31.820Z,2.30
2018-12-04T06:12:01.039Z,2.27
2018-12-04T06:14:30.268Z,2.30
2018-12-04T06:17:00.135Z,2.30
2018-12-04T06:19:29.790Z,2.27
2018-12-04T06:21:59.029Z,2.53
2018-12-04T06:24:28.252Z,2.47
2018-12-04T06:26:57.541Z,2.80
2018-12-04T06:29:26.763Z,2.50
2018-12-04T06:31:55.995Z,2.63
2018-12-04T06:34:25.744Z,3.13
2018-12-04T06:36:54.962Z,2.60
2018-12-04T06:39:24.594Z,2.53
2018-12-04T06:41:53.831Z,2.20
2018-12-04T06:44:23.315Z,2.17
2018-12-04T06:46:52.525Z,2.43
2018-12-04T06:49:21.761Z,2.27
2018-12-04T06:51:51.077Z,2.53
2018-12-04T06:54:20.302Z,2.40
2018-12-04T06:56:49.651Z,2.27
2018-12-04T06:59:18.899Z,2.43
2018-12-04T07:01:48.131Z,2.23
2018-12-04T07:04:17.376Z,2.50
2018-12-04T07:06:46.925Z,2.10
2018-12-04T07:09:16.443Z,2.17
2018-12-04T07:11:45.794Z,2.53
2018-12-04T07:14:15.742Z,2.63
2018-12-04T07:16:46.310Z,2.43
2018-12-04T07:19:15.533Z,2.27
2018-12-04T07:21:44.802Z,2.50
2018-12-04T07:24:13.984Z,2.80
2018-12-04T07:26:43.549Z,2.37
2018-12-04T07:29:12.793Z,2.70
2018-12-04T07:31:42.080Z,3.10
2018-12-04T07:34:11.394Z,2.33
2018-12-04T07:36:40.657Z,2.67
2018-12-04T07:39:09.857Z,2.60
2018-12-04T07:41:39.107Z,2.50
2018-12-04T07:44:09.211Z,2.37
2018-12-04T07:46:39.105Z,3.57
2018-12-04T07:49:08.636Z,2.33
2018-12-04T07:51:37.825Z,2.57
2018-12-04T07:54:07.305Z,2.50
2018-12-04T07:56:36.539Z,2.33
2018-12-04T07:59:06.127Z,2.40
2018-12-04T08:01:35.375Z,2.40
2018-12-04T08:04:04.746Z,2.77
2018-12-04T08:06:34.005Z,2.80
2018-12-04T08:09:03.821Z,2.37
2018-12-04T08:11:33.880Z,2.67
2018-12-04T08:14:03.208Z,2.50
2018-12-04T08:16:32.733Z,2.70
2018-12-04T08:19:02.225Z,2.30
2018-12-04T08:21:32.387Z,2.23
2018-12-04T08:24:01.745Z,2.33
2018-12-04T08:26:31.144Z,2.60
2018-12-04T08:29:00.459Z,2.57
2018-12-04T08:31:29.682Z,2.37
2018-12-04T08:34:00.011Z,2.00
2018-12-04T08:36:29.253Z,2.30
2018-12-04T08:38:58.447Z,2.30
2018-12-04T08:41:28.784Z,2.50
2018-12-04T08:43:58.008Z,2.50
2018-12-04T08:46:27.282Z,2.10
2018-12-04T08:48:56.992Z,2.50
2018-12-04T08:51:26.218Z,2.13
2018-12-04T08:53:55.464Z,2.43
2018-12-04T08:56:25.252Z,2.60
2018-12-04T08:58:55.233Z,2.47
2018-12-04T09:01:24.973Z,2.50
2018-12-04T09:03:59.037Z,2.30
2018-12-04T09:06:27.515Z,2.90
2018-12-04T09:08:56.751Z,2.70
2018-12-04T09:11:26.348Z,2.63
2018-12-04T09:13:55.799Z,2.30
2018-12-04T09:16:25.114Z,2.73
2018-12-04T09:18:55.222Z,2.30
2018-12-04T09:21:24.533Z,2.40
2018-12-04T09:23:53.906Z,2.30
2018-12-04T09:26:23.510Z,2.10
2018-12-04T09:28:52.824Z,2.13
2018-12-04T09:31:22.312Z,2.30
2018-12-04T09:33:51.781Z,2.33
2018-12-04T09:36:21.074Z,2.53
2018-12-04T09:38:50.291Z,2.20
2018-12-04T09:41:20.305Z,2.43
2018-12-04T09:43:49.477Z,2.30
2018-12-04T09:46:18.726Z,2.30
2018-12-04T09:48:47.994Z,2.17
2018-12-04T09:51:18.500Z,2.60
2018-12-04T09:53:52.016Z,2.53
2018-12-04T09:56:19.025Z,2.47
2018-12-04T09:58:48.249Z,2.10
2018-12-04T10:01:18.194Z,2.33
2018-12-04T10:03:47.577Z,2.20
2018-12-04T10:06:17.631Z,2.10
2018-12-04T10:08:47.003Z,2.07
2018-12-04T10:11:16.344Z,1.80
2018-12-04T10:13:45.551Z,2.00
2018-12-04T10:16:14.794Z,1.90
2018-12-04T10:18:47.678Z,1.80
2018-12-04T10:21:15.444Z,1.70
2018-12-04T10:23:44.904Z,2.03
2018-12-04T10:26:14.738Z,1.60
2018-12-04T10:28:44.081Z,1.77
2018-12-04T10:31:13.321Z,1.70
2018-12-04T10:33:42.578Z,1.70
2018-12-04T10:36:11.837Z,1.60
2018-12-04T10:38:41.138Z,1.77
2018-12-04T10:41:10.700Z,1.77
2018-12-04T10:43:39.973Z,1.70
2018-12-04T10:46:11.477Z,1.53
2018-12-04T10:48:40.780Z,1.63
2018-12-04T10:51:10.179Z,1.87
2018-12-04T10:53:39.504Z,1.90
2018-12-04T10:56:09.953Z,1.70
2018-12-04T10:58:40.187Z,1.67
2018-12-04T11:01:14.642Z,1.90
2018-12-04T11:03:43.865Z,1.80
2018-12-04T11:06:13.110Z,1.70
2018-12-04T11:08:43.899Z,1.70
2018-12-04T11:11:13.291Z,1.80
2018-12-04T11:13:43.100Z,1.50
2018-12-04T11:16:15.793Z,1.47
2018-12-04T11:18:45.067Z,1.80
2018-12-04T11:21:14.355Z,1.40
2018-12-04T11:23:43.659Z,1.60
2018-12-04T11:26:14.783Z,2.07
2018-12-04T11:28:43.983Z,1.50
2018-12-04T11:31:14.781Z,1.40
2018-12-04T11:33:44.613Z,1.70
2018-12-04T11:36:13.944Z,1.57
2018-12-04T11:38:43.157Z,1.40
2018-12-04T11:41:12.478Z,1.37
2018-12-04T11:43:41.728Z,1.23
2018-12-04T11:46:10.987Z,1.30
2018-12-04T11:48:40.223Z,1.40
2018-12-04T11:51:09.422Z,1.30
2018-12-04T11:53:38.948Z,1.30
2018-12-04T11:56:08.235Z,1.30
2018-12-04T11:58:37.487Z,1.30
2018-12-04T12:01:07.259Z,1.30
2018-12-04T12:03:36.463Z,1.13
2018-12-04T12:06:05.712Z,1.20
2018-12-04T12:08:34.903Z,1.10
2018-12-04T12:11:04.224Z,1.50
2018-12-04T12:13:33.478Z,1.20
2018-12-04T12:16:03.910Z,1.37
2018-12-04T12:18:33.141Z,1.10
2018-12-04T12:21:02.423Z,1.10
2018-12-04T12:23:31.630Z,1.10
2018-12-04T12:26:00.861Z,2.07
2018-12-04T12:28:30.786Z,1.60
2018-12-04T12:31:01.047Z,1.50
2018-12-04T12:33:30.565Z,1.43
2018-12-04T12:35:59.868Z,1.60
2018-12-04T12:38:29.266Z,4.27
2018-12-04T12:40:58.527Z,2.00
2018-12-04T12:43:27.756Z,1.67
2018-12-04T12:45:57.701Z,1.70
2018-12-04T12:48:27.623Z,1.57
2018-12-04T12:50:56.910Z,2.10
2018-12-04T12:53:26.118Z,1.20
2018-12-04T12:55:55.447Z,1.83
2018-12-04T12:58:24.750Z,1.50
2018-12-04T13:00:54.862Z,2.10
2018-12-04T13:03:26.062Z,1.83
2018-12-04T13:05:55.391Z,2.00
2018-12-04T13:08:24.640Z,1.40
2018-12-04T13:10:53.828Z,1.50
2018-12-04T13:13:23.229Z,1.40
2018-12-04T13:15:53.447Z,1.70
2018-12-04T13:18:22.800Z,1.60
2018-12-04T13:20:52.807Z,1.80
2018-12-04T13:23:22.084Z,1.50
2018-12-04T13:25:51.345Z,1.80
2018-12-04T13:28:20.675Z,1.30
2018-12-04T13:30:50.874Z,1.30
2018-12-04T13:33:20.236Z,1.50
2018-12-04T13:35:49.520Z,1.43
2018-12-04T13:38:18.749Z,1.60
2018-12-04T13:40:47.957Z,1.37
2018-12-04T13:43:17.165Z,1.30
2018-12-04T13:45:46.340Z,1.87
2018-12-04T13:48:15.670Z,1.40
2018-12-04T13:50:44.888Z,1.70
2018-12-04T13:53:15.159Z,1.63
2018-12-04T13:55:44.391Z,1.53
2018-12-04T13:58:13.705Z,1.40
2018-12-04T14:00:42.985Z,1.67
2018-12-04T14:03:13.318Z,1.43
2018-12-04T14:05:43.224Z,1.50
2018-12-04T14:08:12.578Z,1.27
2018-12-04T14:10:41.845Z,1.40
2018-12-04T14:13:11.258Z,1.30
2018-12-04T14:15:41.063Z,1.30
2018-12-04T14:18:10.871Z,1.30
2018-12-04T14:20:40.184Z,1.30
2018-12-04T14:23:09.664Z,1.40
2018-12-04T14:25:39.775Z,1.23
2018-12-04T14:28:08.962Z,1.43
2018-12-04T14:30:38.466Z,1.30
2018-12-04T14:33:08.456Z,1.30
2018-12-04T14:35:38.349Z,1.40
2018-12-04T14:38:07.941Z,1.30
2018-12-04T14:40:37.446Z,1.60
2018-12-04T14:43:07.371Z,1.50
2018-12-04T14:45:36.793Z,1.33
2018-12-04T14:48:06.127Z,1.30
2018-12-04T14:50:35.911Z,1.40
2018-12-04T14:53:05.187Z,1.30
2018-12-04T14:55:35.411Z,1.97
2018-12-04T14:58:04.905Z,2.70
2018-12-04T15:00:34.172Z,2.70
2018-12-04T15:03:04.274Z,2.80
2018-12-04T15:05:33.584Z,2.37
2018-12-04T15:08:02.834Z,4.10
2018-12-04T15:10:32.044Z,2.10
2018-12-04T15:13:01.599Z,1.43
2018-12-04T15:15:31.218Z,1.37
2018-12-04T15:18:00.607Z,1.80
2018-12-04T15:20:29.918Z,1.80
2018-12-04T15:23:00.037Z,1.20
2018-12-04T15:25:29.289Z,1.33
2018-12-04T15:27:58.716Z,1.20
2018-12-04T15:30:28.046Z,1.17
2018-12-04T15:32:57.379Z,1.20
2018-12-04T15:35:26.770Z,1.30
2018-12-04T15:37:56.776Z,1.40
2018-12-04T15:40:26.003Z,1.33
2018-12-04T15:42:55.327Z,1.70
2018-12-04T15:45:24.594Z,1.90
2018-12-04T15:47:54.010Z,1.80
2018-12-04T15:50:23.384Z,1.47
2018-12-04T15:52:53.077Z,1.20
2018-12-04T15:55:22.441Z,1.50
2018-12-04T15:57:56.646Z,1.50
2018-12-04T16:00:28.675Z,1.60
2018-12-04T16:02:59.049Z,1.40
2018-12-04T16:05:29.383Z,1.40
2018-12-04T16:07:59.537Z,1.30
2018-12-04T16:10:28.772Z,1.30
2018-12-04T16:13:00.032Z,1.40
2018-12-04T16:15:29.490Z,1.90
2018-12-04T16:18:00.672Z,4.37
2018-12-04T16:20:29.941Z,2.50
2018-12-04T16:22:59.426Z,1.80
2018-12-04T16:25:28.696Z,1.53
2018-12-04T16:27:58.586Z,1.63
2018-12-04T16:30:28.475Z,1.60
2018-12-04T16:32:58.313Z,1.43
2018-12-04T16:35:29.289Z,1.60
2018-12-04T16:37:58.814Z,1.80
2018-12-04T16:40:28.174Z,1.80
2018-12-04T16:42:57.439Z,1.47
2018-12-04T16:45:26.853Z,1.30
2018-12-04T16:47:56.308Z,1.30
2018-12-04T16:50:25.991Z,1.40
2018-12-04T16:52:55.230Z,1.47
2018-12-04T16:55:24.745Z,1.50
2018-12-04T16:57:54.827Z,1.60
2018-12-04T17:00:24.110Z,1.57
2018-12-04T17:02:53.364Z,1.53
2018-12-04T17:05:22.887Z,1.60
2018-12-04T17:07:52.176Z,1.40
2018-12-04T17:10:22.589Z,1.50
2018-12-04T17:12:52.122Z,1.40
2018-12-04T17:15:21.350Z,1.30
2018-12-04T17:17:51.111Z,1.50
2018-12-04T17:20:20.926Z,1.40
2018-12-04T17:22:50.133Z,1.47
2018-12-04T17:25:19.419Z,1.30
2018-12-04T17:27:48.649Z,1.30
2018-12-04T17:30:18.453Z,1.20
2018-12-04T17:32:48.093Z,1.10
2018-12-04T17:35:17.339Z,1.27
2018-12-04T17:37:48.150Z,1.17
2018-12-04T17:40:17.464Z,1.10
2018-12-04T17:42:49.645Z,1.20
2018-12-04T17:45:18.943Z,1.10
2018-12-04T17:47:49.055Z,1.17
2018-12-04T17:50:18.381Z,1.10
2018-12-04T17:52:47.659Z,1.17
2018-12-04T17:55:17.771Z,1.20
2018-12-04T17:57:47.009Z,1.20
2018-12-04T18:00:17.020Z,1.13
2018-12-04T18:02:46.213Z,1.20
2018-12-04T18:05:15.465Z,1.20
2018-12-04T18:07:44.688Z,1.20
2018-12-04T18:10:13.860Z,1.10
2018-12-04T18:12:43.060Z,1.10
2018-12-04T18:15:12.445Z,1.30
2018-12-04T18:17:41.785Z,1.20
2018-12-04T18:20:11.190Z,1.20
2018-12-04T18:22:40.497Z,1.30
2018-12-04T18:25:09.745Z,1.30
2018-12-04T18:27:39.023Z,1.30
2018-12-04T18:30:09.426Z,1.27
2018-12-04T18:32:38.684Z,1.20
2018-12-04T18:35:09.237Z,1.13
2018-12-04T18:37:39.787Z,1.10
2018-12-04T18:40:09.007Z,1.23
2018-12-04T18:42:38.245Z,1.30
2018-12-04T18:45:09.686Z,1.20
2018-12-04T18:47:38.895Z,1.20
2018-12-04T18:50:10.358Z,1.20
2018-12-04T18:52:40.279Z,1.20
2018-12-04T18:55:11.543Z,1.30
2018-12-04T18:57:40.740Z,1.20
2018-12-04T19:00:10.219Z,1.20
2018-12-04T19:02:39.463Z,1.40
2018-12-04T19:05:08.707Z,1.40
2018-12-04T19:07:37.957Z,1.40
2018-12-04T19:10:07.194Z,1.30
2018-12-04T19:12:37.402Z,1.50
2018-12-04T19:15:08.738Z,1.50
2018-12-04T19:17:37.922Z,1.40
2018-12-04T19:20:08.569Z,1.40
2018-12-04T19:22:37.856Z,1.50
2018-12-04T19:25:07.677Z,1.40
2018-12-04T19:27:36.947Z,1.60
2018-12-04T19:30:10.373Z,1.50
2018-12-04T19:32:39.662Z,1.50
2018-12-04T19:35:10.734Z,1.53
2018-12-04T19:37:40.047Z,1.70
2018-12-04T19:40:11.405Z,1.90
2018-12-04T19:42:44.106Z,2.00
2018-12-04T19:45:13.952Z,1.60
2018-12-04T19:47:43.175Z,1.60
2018-12-04T19:50:12.387Z,1.90
2018-12-04T19:52:41.955Z,1.70
2018-12-04T19:55:11.155Z,1.70
2018-12-04T19:57:40.561Z,1.70
2018-12-04T20:00:11.257Z,1.77
2018-12-04T20:02:40.610Z,1.73
2018-12-04T20:05:10.483Z,1.97
2018-12-04T20:07:40.400Z,1.50
2018-12-04T20:10:09.687Z,1.83
2018-12-04T20:12:38.853Z,1.70
2018-12-04T20:15:08.079Z,1.40
2018-12-04T20:17:37.312Z,1.63
2018-12-04T20:20:06.662Z,1.90
2018-12-04T20:22:35.948Z,1.70
2018-12-04T20:25:07.522Z,1.50
2018-12-04T20:27:40.456Z,1.60
2018-12-04T20:30:09.874Z,1.70
2018-12-04T20:32:39.284Z,1.83
2018-12-04T20:35:09.361Z,1.53
2018-12-04T20:37:38.915Z,1.70
2018-12-04T20:40:08.138Z,1.60
2018-12-04T20:42:37.404Z,1.67
2018-12-04T20:45:07.915Z,1.87
2018-12-04T20:47:37.168Z,1.60
2018-12-04T20:50:07.842Z,1.60
2018-12-04T20:52:37.076Z,1.50
2018-12-04T20:55:08.969Z,1.73
2018-12-04T20:57:38.566Z,1.60
2018-12-04T21:00:11.421Z,1.50
2018-12-04T21:02:41.026Z,1.50
2018-12-04T21:05:11.443Z,1.77
2018-12-04T21:07:42.535Z,1.73
2018-12-04T21:10:12.326Z,1.50
2018-12-04T21:12:41.555Z,1.60
2018-12-04T21:15:10.789Z,1.47
2018-12-04T21:17:40.026Z,1.67
2018-12-04T21:20:09.233Z,1.63
2018-12-04T21:22:38.600Z,1.50
2018-12-04T21:25:07.949Z,1.60
2018-12-04T21:27:42.548Z,1.50
2018-12-04T21:30:16.980Z,1.50
2018-12-04T21:32:51.710Z,1.57
2018-12-04T21:35:26.162Z,1.33
2018-12-04T21:38:00.864Z,1.27
2018-12-04T21:40:35.600Z,1.50
2018-12-04T21:43:10.490Z,1.30
2018-12-04T21:45:45.493Z,1.50
2018-12-04T21:48:15.314Z,1.40
2018-12-04T21:55:23.387Z,1.33
2018-12-04T21:57:52.801Z,1.40
2018-12-04T22:00:22.428Z,1.33
2018-12-04T22:02:51.736Z,1.40
2018-12-04T22:05:20.982Z,1.40
2018-12-04T22:07:51.584Z,1.93
2018-12-04T22:10:20.904Z,1.40
2018-12-04T22:12:50.522Z,1.40
2018-12-04T22:15:19.791Z,1.30
2018-12-04T22:17:49.379Z,1.20
2018-12-04T22:20:18.657Z,1.30
2018-12-04T22:22:47.902Z,1.10
2018-12-04T22:25:17.460Z,1.40
2018-12-04T22:27:46.805Z,1.40
2018-12-04T22:30:16.060Z,1.30
2018-12-04T22:32:45.272Z,1.33
2018-12-04T22:35:14.525Z,1.40
2018-12-04T22:37:44.459Z,1.13
2018-12-04T22:40:13.758Z,1.37
2018-12-04T22:42:42.980Z,1.30
2018-12-04T22:45:30.754Z,1.40
2018-12-04T22:48:00.122Z,1.40
2018-12-04T22:50:30.249Z,1.40
2018-12-04T22:53:00.142Z,1.40
2018-12-04T22:55:30.605Z,1.40
2018-12-04T22:58:00.879Z,1.50
2018-12-04T23:00:38.301Z,1.40
2018-12-04T23:03:07.724Z,1.43
2018-12-04T23:05:36.950Z,1.40
2018-12-04T23:08:06.252Z,1.50
2018-12-04T23:10:35.593Z,1.40
2018-12-04T23:13:05.692Z,1.20
2018-12-04T23:15:35.688Z,1.40
2018-12-04T23:18:04.964Z,1.20
2018-12-04T23:20:34.399Z,1.30
2018-12-04T23:23:04.605Z,1.30
2018-12-04T23:25:33.841Z,1.37
2018-12-04T23:28:03.196Z,1.43
2018-12-04T23:30:32.522Z,1.40
2018-12-04T23:33:02.522Z,1.60
2018-12-04T23:35:31.864Z,1.60
2018-12-04T23:38:01.941Z,1.47
2018-12-04T23:40:31.183Z,1.87
2018-12-04T23:43:00.403Z,1.50
2018-12-04T23:45:29.689Z,1.60
2018-12-04T23:47:59.649Z,1.60
2018-12-04T23:50:29.370Z,1.57
2018-12-04T23:52:58.549Z,1.50
2018-12-04T23:55:27.744Z,1.40
2018-12-04T23:57:57.238Z,1.80
